createdAt,value
2023-03-26T00:01:21.442Z,63.43
2023-03-26T00:03:54.074Z,63.70
2023-03-26T00:06:23.170Z,64.10
2023-03-26T00:08:50.808Z,63.85
2023-03-26T00:11:19.745Z,64.42
2023-03-26T00:13:47.758Z,65.07
2023-03-26T00:16:18.242Z,65.15
2023-03-26T00:18:46.123Z,65.73
2023-03-26T00:21:14.201Z,65.57
2023-03-26T00:23:41.678Z,65.41
2023-03-26T00:26:10.731Z,65.65
2023-03-26T00:28:40.433Z,65.44
2023-03-26T00:31:10.343Z,65.88
2023-03-26T00:33:40.838Z,66.08
2023-03-26T00:36:11.081Z,65.44
2023-03-26T00:38:39.158Z,65.93
2023-03-26T00:41:07.581Z,66.02
2023-03-26T00:43:35.971Z,65.90
2023-03-26T00:46:03.450Z,66.34
2023-03-26T00:48:43.922Z,66.08
2023-03-26T00:51:18.103Z,65.88
2023-03-26T00:53:47.094Z,66.07
2023-03-26T00:56:14.590Z,66.10
2023-03-26T00:58:41.977Z,66.84
2023-03-26T01:01:11.085Z,66.77
2023-03-26T01:03:38.707Z,66.26
2023-03-26T01:06:11.349Z,65.44
2023-03-26T01:08:42.125Z,65.52
2023-03-26T01:11:14.354Z,65.53
2023-03-26T01:13:44.905Z,65.52
2023-03-26T01:16:22.120Z,65.33
2023-03-26T01:18:50.011Z,65.24
2023-03-26T01:21:22.770Z,65.01
2023-03-26T01:23:57.877Z,65.35
2023-03-26T01:26:44.482Z,65.95
2023-03-26T01:29:20.801Z,65.45
2023-03-26T01:31:55.030Z,65.62
2023-03-26T01:34:30.568Z,66.46
2023-03-26T01:37:04.750Z,66.52
2023-03-26T01:39:39.002Z,66.38
2023-03-26T01:42:08.407Z,66.54
2023-03-26T01:44:39.862Z,67.17
2023-03-26T01:47:08.191Z,67.05
2023-03-26T01:49:35.211Z,67.77
2023-03-26T01:52:02.387Z,67.61
2023-03-26T01:54:34.121Z,67.91
2023-03-26T01:57:06.085Z,67.33
2023-03-26T01:59:43.552Z,67.79
2023-03-26T02:02:14.022Z,67.90
2023-03-26T02:04:48.470Z,68.16
2023-03-26T02:07:21.232Z,67.82
2023-03-26T02:09:52.729Z,68.59
2023-03-26T02:12:21.832Z,68.10
2023-03-26T02:14:49.378Z,67.63
2023-03-26T02:17:19.190Z,67.26
2023-03-26T02:19:48.118Z,66.93
2023-03-26T02:22:15.857Z,66.64
2023-03-26T02:24:45.090Z,67.06
2023-03-26T02:27:13.795Z,66.93
2023-03-26T02:29:40.644Z,66.95
2023-03-26T02:32:13.551Z,66.44
2023-03-26T02:34:41.002Z,66.84
2023-03-26T02:37:08.814Z,66.59
2023-03-26T02:39:36.692Z,66.93
2023-03-26T02:42:12.990Z,66.81
2023-03-26T02:44:46.667Z,65.82
2023-03-26T02:47:19.718Z,66.13
2023-03-26T02:49:52.722Z,65.66
2023-03-26T02:52:26.125Z,65.33
2023-03-26T02:54:56.322Z,66.18
2023-03-26T02:57:26.580Z,66.16
2023-03-26T03:00:10.112Z,65.68
2023-03-26T03:02:40.062Z,65.59
2023-03-26T03:05:26.579Z,65.09
2023-03-26T03:08:13.995Z,64.96
2023-03-26T03:10:57.736Z,65.28
2023-03-26T03:13:38.372Z,66.14
2023-03-26T03:16:07.045Z,66.18
2023-03-26T03:18:34.525Z,65.95
2023-03-26T03:21:03.040Z,66.73
2023-03-26T03:23:30.399Z,67.38
2023-03-26T03:26:12.990Z,66.86
2023-03-26T03:28:42.021Z,66.68
2023-03-26T03:31:09.251Z,67.31
2023-03-26T03:33:37.167Z,67.79
2023-03-26T03:36:10.528Z,67.71
2023-03-26T03:38:48.585Z,67.81
2023-03-26T03:41:19.398Z,67.97
2023-03-26T03:43:48.716Z,68.29
2023-03-26T03:46:20.951Z,68.97
2023-03-26T03:48:49.999Z,68.41
2023-03-26T03:51:21.970Z,68.34
2023-03-26T03:53:52.884Z,68.13
2023-03-26T03:56:32.461Z,68.82
2023-03-26T03:59:24.090Z,68.58
2023-03-26T04:01:51.263Z,68.25
2023-03-26T04:04:28.800Z,68.85
2023-03-26T04:07:00.889Z,68.15
2023-03-26T04:09:35.906Z,68.16
2023-03-26T04:12:10.540Z,68.73
2023-03-26T04:14:42.612Z,68.09
2023-03-26T04:17:15.746Z,68.46
2023-03-26T04:19:44.857Z,69.15
2023-03-26T04:22:14.059Z,69.17
2023-03-26T04:24:55.428Z,69.00
2023-03-26T04:27:37.682Z,69.47
2023-03-26T04:30:20.726Z,69.62
2023-03-26T04:33:10.690Z,69.33
2023-03-26T04:35:41.831Z,68.96
2023-03-26T04:38:11.568Z,69.16
2023-03-26T04:40:42.404Z,69.82
2023-03-26T04:43:42.284Z,69.63
2023-03-26T04:46:21.991Z,69.69
2023-03-26T04:48:55.153Z,68.62
2023-03-26T04:51:27.216Z,69.49
2023-03-26T04:53:58.398Z,68.34
2023-03-26T04:56:39.664Z,67.18
2023-03-26T04:59:08.128Z,65.79
2023-03-26T05:01:41.857Z,66.81
2023-03-26T05:04:11.675Z,65.59
2023-03-26T05:06:39.913Z,66.02
2023-03-26T05:09:15.766Z,65.14
2023-03-26T05:12:18.133Z,63.66
2023-03-26T05:15:00.048Z,64.22
2023-03-26T05:17:58.142Z,63.24
2023-03-26T05:20:31.293Z,62.56
2023-03-26T05:22:58.556Z,62.24
2023-03-26T05:25:31.109Z,62.55
2023-03-26T05:28:00.238Z,61.98
2023-03-26T05:30:34.170Z,61.54
2023-03-26T05:33:04.465Z,61.70
2023-03-26T05:35:40.746Z,61.55
2023-03-26T05:38:09.339Z,62.01
2023-03-26T05:40:36.691Z,61.44
2023-03-26T05:43:05.485Z,61.48
2023-03-26T05:45:35.730Z,61.30
2023-03-26T05:48:16.955Z,60.36
2023-03-26T05:50:43.923Z,59.41
2023-03-26T05:53:10.975Z,59.69
2023-03-26T05:56:04.349Z,59.81
2023-03-26T05:58:52.108Z,60.38
2023-03-26T06:01:38.624Z,60.54
2023-03-26T06:04:25.601Z,61.24
2023-03-26T06:07:19.875Z,60.61
2023-03-26T06:10:03.552Z,59.07
2023-03-26T06:12:30.599Z,59.24
2023-03-26T06:14:57.746Z,57.97
2023-03-26T06:17:38.800Z,58.51
2023-03-26T06:20:15.902Z,58.40
2023-03-26T06:22:46.118Z,57.64
2023-03-26T06:25:34.020Z,57.87
2023-03-26T06:28:08.025Z,57.90
2023-03-26T06:31:13.417Z,57.67
2023-03-26T06:33:49.180Z,58.97
2023-03-26T06:36:18.021Z,58.07
2023-03-26T06:38:48.533Z,57.03
2023-03-26T06:41:15.592Z,57.54
2023-03-26T06:44:01.378Z,56.79
2023-03-26T06:47:00.450Z,55.76
2023-03-26T06:49:46.219Z,55.96
2023-03-26T06:52:36.915Z,56.42
2023-03-26T06:55:24.802Z,55.50
2023-03-26T06:58:14.585Z,54.89
2023-03-26T07:00:44.124Z,54.00
2023-03-26T07:03:29.730Z,54.45
2023-03-26T07:06:15.048Z,53.76
2023-03-26T07:09:02.261Z,53.02
2023-03-26T07:11:29.445Z,54.23
2023-03-26T07:14:15.615Z,54.12
2023-03-26T07:16:42.560Z,53.08
2023-03-26T07:19:29.876Z,52.36
2023-03-26T07:21:57.397Z,52.88
2023-03-26T07:24:50.394Z,51.76
2023-03-26T07:27:48.790Z,50.75
2023-03-26T07:30:28.881Z,51.09
2023-03-26T07:33:19.543Z,50.49
2023-03-26T07:36:08.249Z,49.87
2023-03-26T07:39:00.493Z,49.50
2023-03-26T07:41:45.506Z,49.56
2023-03-26T07:44:47.540Z,49.54
2023-03-26T07:47:34.349Z,46.95
2023-03-26T07:50:18.801Z,46.06
2023-03-26T07:52:58.674Z,46.93
2023-03-26T07:55:51.125Z,46.19
2023-03-26T07:59:11.991Z,45.61
2023-03-26T08:02:08.846Z,44.59
2023-03-26T08:04:55.015Z,42.68
2023-03-26T08:07:51.677Z,41.82
2023-03-26T08:10:28.305Z,39.96
2023-03-26T08:13:14.088Z,39.76
2023-03-26T08:15:48.281Z,39.55
2023-03-26T08:18:27.727Z,38.83
2023-03-26T08:20:58.303Z,38.72
2023-03-26T08:23:29.182Z,37.98
2023-03-26T08:26:02.496Z,37.62
2023-03-26T08:28:38.637Z,37.11
2023-03-26T08:31:08.321Z,37.25
2023-03-26T08:33:38.302Z,36.46
2023-03-26T08:36:06.072Z,36.03
2023-03-26T08:38:33.113Z,37.63
2023-03-26T08:41:36.234Z,36.10
2023-03-26T08:44:40.782Z,36.83
2023-03-26T08:47:38.553Z,35.92
2023-03-26T08:50:28.752Z,36.13
2023-03-26T08:53:23.372Z,35.55
2023-03-26T08:55:54.102Z,37.01
2023-03-26T08:58:56.056Z,34.98
2023-03-26T09:02:07.556Z,33.70
2023-03-26T09:05:02.195Z,32.85
2023-03-26T09:08:11.413Z,32.85
2023-03-26T09:10:53.553Z,33.13
2023-03-26T09:13:44.190Z,33.93
2023-03-26T09:16:43.594Z,32.26
2023-03-26T09:19:39.149Z,32.70
2023-03-26T09:22:29.762Z,31.35
2023-03-26T09:25:14.478Z,31.72
2023-03-26T09:28:06.883Z,32.03
2023-03-26T09:30:47.101Z,30.73
2023-03-26T09:33:54.024Z,30.18
2023-03-26T09:36:30.409Z,28.97
2023-03-26T09:39:06.552Z,28.76
2023-03-26T09:41:39.712Z,29.24
2023-03-26T09:44:34.268Z,27.88
2023-03-26T09:47:30.431Z,27.98
2023-03-26T09:50:09.018Z,27.89
2023-03-26T09:52:55.348Z,28.29
2023-03-26T09:55:42.147Z,26.61
2023-03-26T09:58:27.326Z,26.65
2023-03-26T10:01:05.544Z,27.66
2023-03-26T10:03:41.007Z,25.45
2023-03-26T10:06:33.626Z,26.02
2023-03-26T10:09:15.125Z,26.70
2023-03-26T10:12:07.079Z,25.25
2023-03-26T10:14:37.543Z,26.53
2023-03-26T10:17:19.720Z,25.99
2023-03-26T10:19:57.035Z,24.99
2023-03-26T10:22:36.008Z,24.53
2023-03-26T10:25:33.288Z,24.33
2023-03-26T10:28:10.358Z,23.72
2023-03-26T10:30:53.692Z,23.52
2023-03-26T10:33:31.513Z,22.25
2023-03-26T10:36:15.629Z,23.13
2023-03-26T10:38:54.754Z,23.42
2023-03-26T10:41:28.158Z,24.10
2023-03-26T10:44:09.070Z,22.30
2023-03-26T10:47:03.425Z,22.29
2023-03-26T10:49:52.251Z,20.67
2023-03-26T10:52:22.189Z,22.15
2023-03-26T10:54:54.525Z,21.46
2023-03-26T10:57:38.196Z,21.65
2023-03-26T11:00:14.986Z,21.74
2023-03-26T11:02:47.092Z,21.67
2023-03-26T11:05:28.900Z,20.15
2023-03-26T11:08:00.331Z,19.89
2023-03-26T11:10:37.112Z,20.78
2023-03-26T11:13:14.685Z,19.75
2023-03-26T11:15:45.341Z,18.70
2023-03-26T11:18:17.769Z,17.77
2023-03-26T11:20:47.727Z,19.63
2023-03-26T11:23:31.635Z,20.25
2023-03-26T11:26:08.792Z,19.94
2023-03-26T11:29:04.142Z,19.79
2023-03-26T11:31:47.815Z,20.03
2023-03-26T11:34:17.405Z,19.71
2023-03-26T11:36:47.645Z,20.13
2023-03-26T11:39:20.340Z,19.88
2023-03-26T11:41:47.811Z,19.39
2023-03-26T11:44:26.145Z,19.72
2023-03-26T11:47:01.459Z,20.54
2023-03-26T11:49:47.078Z,19.48
2023-03-26T11:52:15.904Z,19.10
2023-03-26T11:54:43.453Z,19.33
2023-03-26T11:57:13.666Z,20.25
2023-03-26T11:59:55.766Z,19.33
2023-03-26T12:02:29.329Z,19.70
2023-03-26T12:05:12.262Z,19.86
2023-03-26T12:07:45.874Z,19.37
2023-03-26T12:10:26.658Z,20.28
2023-03-26T12:12:56.086Z,19.22
2023-03-26T12:15:23.263Z,19.16
2023-03-26T12:17:55.992Z,19.50
2023-03-26T12:20:32.951Z,19.86
2023-03-26T12:23:00.822Z,18.92
2023-03-26T12:25:33.444Z,18.97
2023-03-26T12:28:03.081Z,18.22
2023-03-26T12:30:31.308Z,18.15
2023-03-26T12:33:03.957Z,18.39
2023-03-26T12:35:33.584Z,18.79
2023-03-26T12:38:24.353Z,19.18
2023-03-26T12:41:05.297Z,18.24
2023-03-26T12:44:49.558Z,18.14
2023-03-26T12:47:54.392Z,18.17
2023-03-26T12:49:18.774Z,17.15
2023-03-26T12:51:49.090Z,17.79
2023-03-26T12:54:33.322Z,17.76
2023-03-26T12:57:19.850Z,16.29
2023-03-26T13:00:21.291Z,15.37
2023-03-26T13:03:06.947Z,16.27
2023-03-26T13:05:45.312Z,16.38
2023-03-26T13:08:41.653Z,16.45
2023-03-26T13:11:11.642Z,16.18
2023-03-26T13:13:52.745Z,16.67
2023-03-26T13:16:25.230Z,17.42
2023-03-26T13:18:54.591Z,17.25
2023-03-26T13:21:30.394Z,15.24
2023-03-26T13:24:03.026Z,15.17
2023-03-26T13:26:41.150Z,14.39
2023-03-26T13:29:17.570Z,13.96
2023-03-26T13:31:49.505Z,13.64
2023-03-26T13:34:22.661Z,14.80
2023-03-26T13:36:59.886Z,15.09
2023-03-26T13:39:33.315Z,15.87
2023-03-26T13:42:10.350Z,15.53
2023-03-26T13:44:45.367Z,14.95
2023-03-26T13:47:16.908Z,15.47
2023-03-26T13:49:46.916Z,15.09
2023-03-26T13:52:20.717Z,15.18
2023-03-26T13:54:50.267Z,15.59
2023-03-26T13:57:21.570Z,14.77
2023-03-26T13:59:51.199Z,15.33
2023-03-26T14:02:24.318Z,14.93
2023-03-26T14:04:55.789Z,14.58
2023-03-26T14:07:27.651Z,14.88
2023-03-26T14:09:57.268Z,14.50
2023-03-26T14:12:33.172Z,14.35
2023-03-26T14:15:02.818Z,14.98
2023-03-26T14:17:34.732Z,15.28
2023-03-26T14:20:41.720Z,15.29
2023-03-26T14:23:24.784Z,15.30
2023-03-26T14:26:02.826Z,15.72
2023-03-26T14:28:54.901Z,14.99
2023-03-26T14:31:24.233Z,15.18
2023-03-26T14:34:02.392Z,15.47
2023-03-26T14:36:48.004Z,16.09
2023-03-26T14:39:43.426Z,15.40
2023-03-26T14:42:19.196Z,15.44
2023-03-26T14:45:11.060Z,15.52
2023-03-26T14:47:43.387Z,15.54
2023-03-26T14:50:37.610Z,15.88
2023-03-26T14:53:13.913Z,16.22
2023-03-26T14:56:04.259Z,16.68
2023-03-26T14:59:07.394Z,16.14
2023-03-26T15:02:15.783Z,15.84
2023-03-26T15:04:52.035Z,16.69
2023-03-26T15:07:30.359Z,17.04
2023-03-26T15:10:17.913Z,16.98
2023-03-26T15:13:01.137Z,17.38
2023-03-26T15:16:01.013Z,17.74
2023-03-26T15:19:08.785Z,16.96
2023-03-26T15:22:12.683Z,16.59
2023-03-26T15:25:12.009Z,16.72
2023-03-26T15:28:11.617Z,16.62
2023-03-26T15:31:09.892Z,17.08
2023-03-26T15:34:20.168Z,17.30
2023-03-26T15:37:22.417Z,17.83
2023-03-26T15:40:17.126Z,18.09
2023-03-26T15:42:49.304Z,17.66
2023-03-26T15:45:22.538Z,17.93
2023-03-26T15:47:57.450Z,17.87
2023-03-26T15:50:55.905Z,17.95
2023-03-26T15:53:36.549Z,18.87
2023-03-26T15:56:11.650Z,19.87
2023-03-26T15:58:46.600Z,20.04
2023-03-26T16:01:21.231Z,20.45
2023-03-26T16:03:56.534Z,20.63
2023-03-26T16:06:31.142Z,22.06
2023-03-26T16:09:08.630Z,21.42
2023-03-26T16:11:49.534Z,21.95
2023-03-26T16:14:18.663Z,22.22
2023-03-26T16:16:59.299Z,23.28
2023-03-26T16:19:36.283Z,24.31
2023-03-26T16:22:06.156Z,25.28
2023-03-26T16:24:34.747Z,25.28
2023-03-26T16:27:10.710Z,26.01
2023-03-26T16:30:10.933Z,26.90
2023-03-26T16:32:41.219Z,27.35
2023-03-26T16:35:35.919Z,28.01
2023-03-26T16:38:09.745Z,29.27
2023-03-26T16:40:57.542Z,28.96
2023-03-26T16:43:51.724Z,29.68
2023-03-26T16:46:35.332Z,30.31
2023-03-26T16:49:10.693Z,31.67
2023-03-26T16:51:53.604Z,32.30
2023-03-26T16:54:25.477Z,32.38
2023-03-26T16:56:59.563Z,33.54
2023-03-26T16:59:40.023Z,34.04
2023-03-26T17:02:16.388Z,34.83
2023-03-26T17:04:46.647Z,36.08
2023-03-26T17:07:17.376Z,36.17
2023-03-26T17:09:54.170Z,36.60
2023-03-26T17:12:29.085Z,36.26
2023-03-26T17:15:17.440Z,35.18
2023-03-26T17:17:53.171Z,35.51
2023-03-26T17:20:33.497Z,36.93
2023-03-26T17:23:11.562Z,36.25
2023-03-26T17:25:45.160Z,37.24
2023-03-26T17:28:32.423Z,37.02
2023-03-26T17:31:05.057Z,37.40
2023-03-26T17:33:34.782Z,37.24
2023-03-26T17:36:30.858Z,37.95
2023-03-26T17:39:19.585Z,37.68
2023-03-26T17:42:13.403Z,38.46
2023-03-26T17:44:44.060Z,37.79
2023-03-26T17:47:18.739Z,37.85
2023-03-26T17:49:47.865Z,37.34
2023-03-26T17:52:18.447Z,37.16
2023-03-26T17:54:48.103Z,38.33
2023-03-26T17:57:19.087Z,37.69
2023-03-26T17:59:47.032Z,37.93
2023-03-26T18:02:16.236Z,38.00
2023-03-26T18:04:45.707Z,37.29
2023-03-26T18:07:33.297Z,37.86
2023-03-26T18:10:17.283Z,37.73
2023-03-26T18:13:23.379Z,37.20
2023-03-26T18:15:57.854Z,38.05
2023-03-26T18:18:29.550Z,37.26
2023-03-26T18:21:00.357Z,37.93
2023-03-26T18:23:36.045Z,38.21
2023-03-26T18:26:12.561Z,38.40
2023-03-26T18:28:42.300Z,37.98
2023-03-26T18:31:14.175Z,38.58
2023-03-26T18:33:42.982Z,38.45
2023-03-26T18:36:11.554Z,38.37
2023-03-26T18:38:40.561Z,38.17
2023-03-26T18:41:17.220Z,37.84
2023-03-26T18:43:44.842Z,37.54
2023-03-26T18:46:12.750Z,38.37
2023-03-26T18:48:40.211Z,39.01
2023-03-26T18:51:07.502Z,38.17
2023-03-26T18:53:37.882Z,36.88
2023-03-26T18:56:20.594Z,37.88
2023-03-26T18:58:51.022Z,39.46
2023-03-26T19:01:25.370Z,37.89
2023-03-26T19:03:53.880Z,38.60
2023-03-26T19:06:21.033Z,39.32
2023-03-26T19:08:48.283Z,39.94
2023-03-26T19:11:17.116Z,39.76
2023-03-26T19:13:50.702Z,40.82
2023-03-26T19:16:22.261Z,41.11
2023-03-26T19:18:49.717Z,40.59
2023-03-26T19:21:18.128Z,40.60
2023-03-26T19:23:46.857Z,39.98
2023-03-26T19:26:14.247Z,39.97
2023-03-26T19:28:49.083Z,40.04
2023-03-26T19:31:24.040Z,39.33
2023-03-26T19:33:54.580Z,39.13
2023-03-26T19:36:24.350Z,40.02
2023-03-26T19:38:52.697Z,39.27
2023-03-26T19:41:22.790Z,38.19
2023-03-26T19:43:50.738Z,39.90
2023-03-26T19:46:18.354Z,40.82
2023-03-26T19:48:51.902Z,40.02
2023-03-26T19:51:21.038Z,39.48
2023-03-26T19:53:50.379Z,38.25
2023-03-26T19:56:19.582Z,41.11
2023-03-26T19:58:46.703Z,40.49
2023-03-26T20:01:17.656Z,39.23
2023-03-26T20:03:48.613Z,39.92
2023-03-26T20:06:17.718Z,40.23
2023-03-26T20:08:44.866Z,39.74
2023-03-26T20:11:15.624Z,40.35
2023-03-26T20:13:42.781Z,40.85
2023-03-26T20:16:14.138Z,41.02
2023-03-26T20:18:41.541Z,40.91
2023-03-26T20:21:12.846Z,42.34
2023-03-26T20:23:40.244Z,42.48
2023-03-26T20:26:12.159Z,42.57
2023-03-26T20:28:47.558Z,41.65
2023-03-26T20:31:17.582Z,43.92
2023-03-26T20:33:44.661Z,43.39
2023-03-26T20:36:13.844Z,44.83
2023-03-26T20:39:00.891Z,44.36
2023-03-26T20:41:27.946Z,43.53
2023-03-26T20:43:54.910Z,44.16
2023-03-26T20:46:23.606Z,45.04
2023-03-26T20:48:58.944Z,44.38
2023-03-26T20:51:28.810Z,44.95
2023-03-26T20:53:56.426Z,45.64
2023-03-26T20:56:23.638Z,44.92
2023-03-26T20:59:03.476Z,45.62
2023-03-26T21:01:35.173Z,45.44
2023-03-26T21:04:04.389Z,45.95
2023-03-26T21:06:32.838Z,43.09
2023-03-26T21:09:00.408Z,45.42
2023-03-26T21:11:36.682Z,48.41
2023-03-26T21:14:08.033Z,45.77
2023-03-26T21:16:35.782Z,43.48
2023-03-26T21:19:03.418Z,44.62
2023-03-26T21:21:46.498Z,45.82
2023-03-26T21:24:19.339Z,47.05
2023-03-26T21:26:50.559Z,45.66
2023-03-26T21:29:18.043Z,45.84
2023-03-26T21:31:46.770Z,46.63
2023-03-26T21:34:14.203Z,47.18
2023-03-26T21:36:43.158Z,46.33
2023-03-26T21:39:11.127Z,46.10
2023-03-26T21:41:43.931Z,46.10
2023-03-26T21:44:11.108Z,46.70
2023-03-26T21:46:41.693Z,47.50
2023-03-26T21:49:09.171Z,47.33
2023-03-26T21:51:36.572Z,49.15
2023-03-26T21:54:06.126Z,49.66
2023-03-26T21:56:41.370Z,50.73
2023-03-26T21:59:12.212Z,50.52
2023-03-26T22:01:42.192Z,49.61
2023-03-26T22:04:13.238Z,51.05
2023-03-26T22:06:44.383Z,49.81
2023-03-26T22:09:15.145Z,49.84
2023-03-26T22:11:43.900Z,48.24
2023-03-26T22:14:13.373Z,49.60
2023-03-26T22:16:41.397Z,49.45
2023-03-26T22:19:08.762Z,50.17
2023-03-26T22:21:36.895Z,50.15
2023-03-26T22:24:04.258Z,51.09
2023-03-26T22:26:32.978Z,50.46
2023-03-26T22:28:59.977Z,52.36
2023-03-26T22:31:27.200Z,52.68
2023-03-26T22:33:55.047Z,52.54
2023-03-26T22:36:23.744Z,52.15
2023-03-26T22:38:53.233Z,52.00
2023-03-26T22:41:20.668Z,52.13
2023-03-26T22:43:52.127Z,51.39
2023-03-26T22:46:19.525Z,52.91
2023-03-26T22:48:48.546Z,52.28
2023-03-26T22:51:15.550Z,53.24
2023-03-26T22:53:43.537Z,52.41
2023-03-26T22:56:11.314Z,52.00
2023-03-26T22:58:38.341Z,54.01
2023-03-26T23:01:09.789Z,53.49
2023-03-26T23:03:37.234Z,52.91
2023-03-26T23:06:06.921Z,53.22
2023-03-26T23:08:34.460Z,53.14
2023-03-26T23:11:02.107Z,52.73
2023-03-26T23:13:29.028Z,54.04
2023-03-26T23:15:57.265Z,53.28
2023-03-26T23:18:25.916Z,55.29
2023-03-26T23:20:58.152Z,53.19
2023-03-26T23:23:29.408Z,54.83
2023-03-26T23:25:58.711Z,54.66
2023-03-26T23:28:26.031Z,54.47
2023-03-26T23:30:54.755Z,55.01
2023-03-26T23:33:23.514Z,53.92
2023-03-26T23:35:53.325Z,54.13
2023-03-26T23:38:22.312Z,53.53
2023-03-26T23:40:57.465Z,54.03
2023-03-26T23:43:25.553Z,53.81
2023-03-26T23:45:53.233Z,53.76
2023-03-26T23:48:25.412Z,53.29
2023-03-26T23:51:02.841Z,53.62
2023-03-26T23:53:32.021Z,53.08
2023-03-26T23:55:59.221Z,52.70
2023-03-26T23:58:30.113Z,53.42
